createdAt,value
2023-10-19T00:03:38.401Z,6.38
2023-10-19T00:08:43.215Z,4.18
2023-10-19T00:13:50.702Z,6.93
2023-10-19T00:18:54.306Z,8.60
2023-10-19T00:24:07.593Z,7.78
2023-10-19T00:29:30.954Z,6.63
2023-10-19T00:34:34.742Z,7.88
2023-10-19T00:39:44.824Z,8.10
2023-10-19T00:44:51.692Z,7.22
2023-10-19T00:49:55.761Z,5.72
2023-10-19T00:55:00.068Z,8.00
2023-10-19T01:00:13.285Z,8.50
2023-10-19T01:05:16.167Z,7.13
2023-10-19T01:10:21.949Z,8.50
2023-10-19T01:15:30.597Z,8.32
2023-10-19T01:20:49.291Z,8.23
2023-10-19T01:26:01.782Z,4.57
2023-10-19T01:31:07.507Z,8.88
2023-10-19T01:36:15.541Z,8.13
2023-10-19T01:41:20.045Z,6.55
2023-10-19T01:46:25.939Z,8.32
2023-10-19T01:51:30.975Z,7.10
2023-10-19T01:56:37.131Z,5.20
2023-10-19T02:01:43.262Z,8.13
2023-10-19T02:06:47.507Z,6.85
2023-10-19T02:11:54.498Z,6.35
2023-10-19T02:17:00.357Z,7.80
2023-10-19T02:22:08.866Z,6.13
2023-10-19T02:27:22.974Z,8.07
2023-10-19T02:32:34.508Z,5.47
2023-10-19T02:37:39.762Z,8.05
2023-10-19T02:42:47.729Z,9.18
2023-10-19T02:47:51.663Z,8.10
2023-10-19T02:52:55.285Z,6.20
2023-10-19T02:58:00.179Z,9.93
2023-10-19T03:03:06.356Z,8.85
2023-10-19T03:08:11.339Z,9.63
2023-10-19T03:13:16.294Z,8.65
2023-10-19T03:18:19.328Z,9.13
2023-10-19T03:23:22.900Z,8.27
2023-10-19T03:28:27.581Z,7.15
2023-10-19T03:33:32.484Z,8.15
2023-10-19T03:38:38.115Z,9.88
2023-10-19T03:43:42.660Z,8.57
2023-10-19T03:48:47.589Z,10.98
2023-10-19T03:53:59.583Z,8.95
2023-10-19T03:59:05.452Z,10.02
2023-10-19T04:04:10.283Z,8.40
2023-10-19T04:09:16.378Z,7.35
2023-10-19T04:14:22.419Z,10.27
2023-10-19T04:19:25.619Z,8.45
2023-10-19T04:24:28.456Z,11.82
2023-10-19T04:29:32.590Z,9.35
2023-10-19T04:34:37.833Z,9.45
2023-10-19T04:39:40.663Z,11.20
2023-10-19T04:44:44.821Z,11.55
2023-10-19T04:49:47.655Z,11.80
2023-10-19T04:54:50.501Z,9.10
2023-10-19T04:59:54.859Z,10.48
2023-10-19T05:04:57.792Z,11.65
2023-10-19T05:10:01.384Z,6.05
2023-10-19T05:15:07.303Z,8.93
2023-10-19T05:20:11.928Z,8.88
2023-10-19T05:25:14.881Z,12.80
2023-10-19T05:30:19.537Z,12.15
2023-10-19T05:35:25.220Z,7.07
2023-10-19T05:40:30.947Z,12.02
2023-10-19T05:45:37.378Z,9.27
2023-10-19T05:50:41.253Z,10.50
2023-10-19T05:55:44.085Z,12.55
2023-10-19T06:00:48.491Z,11.00
2023-10-19T06:05:51.449Z,13.02
2023-10-19T06:10:54.596Z,10.85
2023-10-19T06:15:58.802Z,9.05
2023-10-19T06:21:01.723Z,10.65
2023-10-19T06:26:12.366Z,10.90
2023-10-19T06:31:16.988Z,12.10
2023-10-19T06:36:20.274Z,11.90
2023-10-19T06:41:23.357Z,8.73
2023-10-19T06:46:28.409Z,11.50
2023-10-19T06:51:31.508Z,10.98
2023-10-19T06:56:43.185Z,10.25
2023-10-19T07:01:48.775Z,10.10
2023-10-19T07:06:51.890Z,10.05
2023-10-19T07:11:56.078Z,10.98
2023-10-19T07:17:00.789Z,11.63
2023-10-19T07:22:05.491Z,7.40
2023-10-19T07:27:12.140Z,11.07
2023-10-19T07:32:20.756Z,12.07
2023-10-19T07:37:23.957Z,13.00
2023-10-19T07:42:27.053Z,11.23
2023-10-19T07:47:33.481Z,12.57
2023-10-19T07:52:38.211Z,10.90
2023-10-19T07:57:41.791Z,12.40
2023-10-19T08:02:47.208Z,13.60
2023-10-19T08:07:50.868Z,13.02
2023-10-19T08:12:54.105Z,7.20
2023-10-19T08:17:58.475Z,11.52
2023-10-19T08:23:06.517Z,10.95
2023-10-19T08:28:09.406Z,12.25
2023-10-19T08:33:15.146Z,10.65
2023-10-19T08:38:18.382Z,12.57
2023-10-19T08:43:22.595Z,12.60
2023-10-19T08:48:27.175Z,7.40
2023-10-19T08:53:31.498Z,12.45
2023-10-19T08:58:34.431Z,8.82
2023-10-19T09:03:39.864Z,10.65
2023-10-19T09:08:42.743Z,13.77
2023-10-19T09:13:48.301Z,12.20
2023-10-19T09:18:53.683Z,7.28
2023-10-19T09:23:57.988Z,11.25
2023-10-19T09:29:00.861Z,11.18
2023-10-19T09:34:06.652Z,12.52
2023-10-19T09:39:13.839Z,10.25
2023-10-19T09:44:20.081Z,11.88
2023-10-19T09:49:27.091Z,12.88
2023-10-19T09:54:42.580Z,13.52
2023-10-19T09:59:49.448Z,8.57
2023-10-19T10:04:53.697Z,9.15
2023-10-19T10:09:57.096Z,10.40
2023-10-19T10:15:03.185Z,13.18
2023-10-19T10:20:35.841Z,12.77
2023-10-19T10:25:40.738Z,15.25
2023-10-19T10:31:17.825Z,12.70
2023-10-19T10:36:23.007Z,13.48
2023-10-19T10:41:29.260Z,10.73
2023-10-19T10:46:33.264Z,14.77
2023-10-19T10:51:37.761Z,12.65
2023-10-19T10:56:43.845Z,10.82
2023-10-19T11:01:46.919Z,13.60
2023-10-19T11:06:52.295Z,16.55
2023-10-19T11:11:55.320Z,14.07
2023-10-19T11:17:13.977Z,9.60
2023-10-19T11:22:18.320Z,10.77
2023-10-19T11:27:27.691Z,14.45
2023-10-19T11:32:39.417Z,17.02
2023-10-19T11:37:51.112Z,15.95
2023-10-19T11:42:57.339Z,11.70
2023-10-19T11:48:00.987Z,13.23
2023-10-19T11:53:06.832Z,12.88
2023-10-19T11:58:12.372Z,14.20
2023-10-19T12:03:15.532Z,14.77
2023-10-19T12:08:19.701Z,12.98
2023-10-19T12:13:22.571Z,13.60
2023-10-19T12:18:27.087Z,11.23
2023-10-19T12:23:32.435Z,15.77
2023-10-19T12:28:35.295Z,8.50
2023-10-19T12:33:39.638Z,11.40
2023-10-19T12:38:43.877Z,12.23
2023-10-19T12:43:47.420Z,15.82
2023-10-19T12:48:50.235Z,12.48
2023-10-19T12:53:55.286Z,14.93
2023-10-19T12:58:58.183Z,13.30
2023-10-19T13:04:02.320Z,14.63
2023-10-19T13:09:10.111Z,15.55
2023-10-19T13:14:13.318Z,13.10
2023-10-19T13:19:21.164Z,11.48
2023-10-19T13:24:27.453Z,12.57
2023-10-19T13:29:31.774Z,14.30
2023-10-19T13:34:34.649Z,14.20
2023-10-19T13:39:40.456Z,13.10
2023-10-19T13:44:43.313Z,15.48
2023-10-19T13:49:47.698Z,14.65
2023-10-19T13:54:52.182Z,13.68
2023-10-19T13:59:56.460Z,13.38
2023-10-19T14:05:01.843Z,13.98
2023-10-19T14:10:07.989Z,11.75
2023-10-19T14:15:15.981Z,14.05
2023-10-19T14:20:20.126Z,9.43
2023-10-19T14:25:25.054Z,10.68
2023-10-19T14:30:29.440Z,11.73
2023-10-19T14:35:33.327Z,12.15
2023-10-19T14:40:37.703Z,12.63
2023-10-19T14:45:43.070Z,14.38
2023-10-19T14:50:46.066Z,12.07
2023-10-19T14:55:50.365Z,12.40
2023-10-19T15:00:56.910Z,13.07
2023-10-19T15:06:00.707Z,15.23
2023-10-19T15:11:05.293Z,14.75
2023-10-19T15:16:13.550Z,12.25
2023-10-19T15:26:20.629Z,16.77
2023-10-19T15:31:23.776Z,15.35
2023-10-19T15:36:27.593Z,13.23
2023-10-19T15:41:31.727Z,17.33
2023-10-19T15:46:35.260Z,16.77
2023-10-19T15:51:38.066Z,12.65
2023-10-19T15:56:42.222Z,16.35
2023-10-19T16:01:45.287Z,18.00
2023-10-19T16:06:48.123Z,14.93
2023-10-19T16:11:52.838Z,16.00
2023-10-19T16:16:55.768Z,18.02
2023-10-19T16:21:59.408Z,19.08
2023-10-19T16:27:04.209Z,15.30
2023-10-19T16:32:10.502Z,17.75
2023-10-19T16:37:13.556Z,21.15
2023-10-19T16:42:17.708Z,20.95
2023-10-19T16:47:23.009Z,24.05
2023-10-19T16:52:25.955Z,20.58
2023-10-19T16:57:30.102Z,17.63
2023-10-19T17:02:33.821Z,21.48
2023-10-19T17:07:36.822Z,21.58
2023-10-19T17:12:41.452Z,20.23
2023-10-19T17:17:45.814Z,11.98
2023-10-19T17:22:48.929Z,17.80
2023-10-19T17:27:53.118Z,18.92
2023-10-19T17:33:01.236Z,20.73
2023-10-19T17:38:10.692Z,18.35
2023-10-19T17:43:15.411Z,17.65
2023-10-19T17:48:18.834Z,17.08
2023-10-19T17:53:21.802Z,14.30
2023-10-19T17:58:26.416Z,18.33
2023-10-19T18:03:29.595Z,13.00
2023-10-19T18:08:33.393Z,12.07
2023-10-19T18:13:37.548Z,14.68
2023-10-19T18:18:40.581Z,14.55
2023-10-19T18:23:43.721Z,13.20
2023-10-19T18:28:49.156Z,15.73
2023-10-19T18:33:52.402Z,14.90
2023-10-19T18:38:56.071Z,16.60
2023-10-19T18:44:00.951Z,16.40
2023-10-19T18:49:07.261Z,15.38
2023-10-19T18:54:10.714Z,14.63
2023-10-19T18:59:15.641Z,15.57
2023-10-19T19:04:19.699Z,17.55
2023-10-19T19:09:22.527Z,12.75
2023-10-19T19:14:26.806Z,17.20
2023-10-19T19:19:29.750Z,15.20
2023-10-19T19:24:33.035Z,13.95
2023-10-19T19:29:37.850Z,12.32
2023-10-19T19:34:41.368Z,12.38
2023-10-19T19:39:45.724Z,14.27
2023-10-19T19:44:50.025Z,11.77
2023-10-19T19:49:52.875Z,12.57
2023-10-19T19:54:55.698Z,11.27
2023-10-19T20:00:00.643Z,14.27
2023-10-19T20:05:05.948Z,11.82
2023-10-19T20:10:10.527Z,8.13
2023-10-19T20:15:16.018Z,12.23
2023-10-19T20:20:20.760Z,8.27
2023-10-19T20:25:23.567Z,9.32
2023-10-19T20:30:27.767Z,11.75
2023-10-19T20:35:34.021Z,11.18
2023-10-19T20:40:38.465Z,6.72
2023-10-19T20:45:43.366Z,12.40
2023-10-19T20:50:49.422Z,9.48
2023-10-19T20:55:52.294Z,9.95
2023-10-19T21:00:56.465Z,9.27
2023-10-19T21:05:59.260Z,9.60
2023-10-19T21:11:02.152Z,8.98
2023-10-19T21:16:09.260Z,5.38
2023-10-19T21:21:12.753Z,7.78
2023-10-19T21:26:15.616Z,7.05
2023-10-19T21:31:19.879Z,6.55
2023-10-19T21:36:22.828Z,3.65
2023-10-19T21:41:27.753Z,8.00
2023-10-19T21:46:32.770Z,7.32
2023-10-19T21:51:35.607Z,7.32
2023-10-19T21:56:38.475Z,6.93
2023-10-19T22:01:43.579Z,7.13
2023-10-19T22:06:46.440Z,7.57
2023-10-19T22:11:49.248Z,7.43
2023-10-19T22:16:53.835Z,5.20
2023-10-19T22:21:56.784Z,3.67
2023-10-19T22:27:00.080Z,5.82
2023-10-19T22:32:04.308Z,6.25
2023-10-19T22:37:07.234Z,5.68
2023-10-19T22:42:10.145Z,5.90
2023-10-19T22:47:16.522Z,5.35
2023-10-19T22:52:19.420Z,5.25
2023-10-19T22:57:22.408Z,5.45
2023-10-19T23:02:27.737Z,2.83
2023-10-19T23:07:30.744Z,4.90
2023-10-19T23:12:34.527Z,3.63
2023-10-19T23:17:43.491Z,4.57
2023-10-19T23:22:46.650Z,2.67
2023-10-19T23:27:49.516Z,2.53
2023-10-19T23:32:55.458Z,4.18
2023-10-19T23:37:58.553Z,2.55
2023-10-19T23:43:01.595Z,3.15
2023-10-19T23:48:11.818Z,2.83
2023-10-19T23:53:17.296Z,2.90
2023-10-19T23:58:20.295Z,2.40
